Maran Canopus — SXUQ — position and weather

sailwx.info

Track history (hours):
 
Tides and Currents Weather Stations Pressure Air Temp Water Temp Dewpoint Dewpoint Depression Visibility Wind Speed Wind Dir Waves Ship Positions

Maran Canopus

Last reported at 2016-Jun-22 17:33 UTC. Time now 2016-Jun-24 20:19 UTC.
Position N 01°60' E 102°12'.

Length 333 m; draft 11.4 m.

Type: Tanker. MMSI: 240677000.

Date/timePositionNaut miles runAvg speedWind from/ knotsBaromVisibWave heightAir tempDewpointWater temp
2016-Jun-22 17:33N 01°60' E 102°12'1515.2
2016-Jun-22 16:33N 01°52' E 102°25'1414.2
2016-Jun-22 15:33N 01°46' E 102°37'6913.7
2016-Jun-22 10:32N 01°11' E 103°37'1111.2
2016-Jun-22 09:34N 01°11' E 103°48'8 7.6
2016-Jun-22 08:34N 01°15' E 103°54'0 0.1
2016-Jun-22 07:29N 01°15' E 103°54'0 0.2
2016-Jun-22 06:32N 01°15' E 103°54'0 0.1
2016-Jun-22 04:17N 01°15' E 103°55'0 0.0
2016-Jun-22 03:11N 01°15' E 103°55'0 0.0
2016-Jun-22 02:29N 01°15' E 103°55'0 0.1
2016-Jun-22 01:14N 01°15' E 103°55'0 0.2
2016-Jun-22 00:32N 01°15' E 103°55'0 0.1
2016-Jun-21 23:29N 01°15' E 103°55'0 0.1
2016-Jun-21 22:29N 01°15' E 103°55'0 0.1
2016-Jun-21 21:32N 01°15' E 103°55'0 0.0
2016-Jun-21 20:29N 01°15' E 103°55'0 0.0
2016-Jun-21 19:29N 01°15' E 103°55'0 0.0
2016-Jun-21 18:29N 01°15' E 103°55'0 0.0
2016-Jun-21 17:29N 01°15' E 103°55'0 0.1
2016-Jun-21 16:32N 01°15' E 103°55'0 0.2
2016-Jun-21 15:29N 01°15' E 103°54'0 0.2
2016-Jun-21 14:29N 01°15' E 103°54'0 0.0
2016-Jun-21 13:32N 01°15' E 103°54'0 0.0
2016-Jun-21 12:29N 01°15' E 103°54'0 0.0
2016-Jun-21 11:23N 01°15' E 103°54'0 0.2
2016-Jun-21 10:29N 01°15' E 103°55'0 0.1
2016-Jun-21 08:11N 01°15' E 103°55'0 0.0
2016-Jun-21 07:32N 01°15' E 103°55'1 0.2
2016-Jun-21 04:33N 01°15' E 103°55'5 5.1
2016-Jun-21 03:33N 01°16' E 104°00'9 9.4
2016-Jun-21 02:33N 01°17' E 104°10'  
2016-Jun-17 01:23N 22°35' E 119°47'1415.0
2016-Jun-17 00:28N 22°49' E 119°49'  
2016-Jun-13 22:33N 36°14' E 123°50'1414.4
2016-Jun-13 21:33N 36°28' E 123°47'1414.2
2016-Jun-13 20:34N 36°42' E 123°46'1413.8
2016-Jun-13 19:33N 36°56' E 123°43'1313.4
2016-Jun-13 18:33N 37°09' E 123°40'1313.2
2016-Jun-13 17:33N 37°19' E 123°30'1312.8
2016-Jun-13 16:33N 37°30' E 123°21'1313.3
2016-Jun-13 15:33N 37°42' E 123°13'1513.8
2016-Jun-13 14:28N 37°53' E 123°01'1913.8
2016-Jun-13 13:04N 38°04' E 122°40'714.4
2016-Jun-13 12:33N 38°06' E 122°31'1414.3
2016-Jun-13 11:33N 38°10' E 122°14'1413.6
2016-Jun-13 10:33N 38°15' E 121°58'1513.3
2016-Jun-13 09:28N 38°20' E 121°40'1213.3
2016-Jun-13 08:33N 38°24' E 121°25'1313.2
2016-Jun-13 07:33N 38°26' E 121°09'1413.6
2016-Jun-13 06:33N 38°33' E 120°54'1211.9
2016-Jun-13 05:34N 38°44' E 120°48'1814.5
2016-Jun-13 04:18N 39°02' E 120°52'3913.2
2016-Jun-13 01:22N 39°39' E 121°02'1612.4
2016-Jun-13 00:07N 39°52' E 121°14'712.5
2016-Jun-12 23:33N 39°58' E 121°18'  
Track history (hours):
 
Tides and Currents Weather Stations Pressure Air Temp Water Temp Dewpoint Dewpoint Depression Visibility Wind Speed Wind Dir Waves Ship Positions

Maran Canopus

Last reported at 2016-Jun-22 17:33 UTC. Time now 2016-Jun-24 20:19 UTC.
Position N 01°60' E 102°12'.

Length 333 m; draft 11.4 m.

Type: Tanker. MMSI: 240677000.

Date/timePositionNaut miles runAvg speedWind from/ knotsBaromVisibWave heightAir tempDewpointWater temp
2016-Jun-22 17:33N 01°60' E 102°12'1515.2
2016-Jun-22 16:33N 01°52' E 102°25'1414.2
2016-Jun-22 15:33N 01°46' E 102°37'6913.7
2016-Jun-22 10:32N 01°11' E 103°37'1111.2
2016-Jun-22 09:34N 01°11' E 103°48'8 7.6
2016-Jun-22 08:34N 01°15' E 103°54'0 0.1
2016-Jun-22 07:29N 01°15' E 103°54'0 0.2
2016-Jun-22 06:32N 01°15' E 103°54'0 0.1
2016-Jun-22 04:17N 01°15' E 103°55'0 0.0
2016-Jun-22 03:11N 01°15' E 103°55'0 0.0
2016-Jun-22 02:29N 01°15' E 103°55'0 0.1
2016-Jun-22 01:14N 01°15' E 103°55'0 0.2
2016-Jun-22 00:32N 01°15' E 103°55'0 0.1
2016-Jun-21 23:29N 01°15' E 103°55'0 0.1
2016-Jun-21 22:29N 01°15' E 103°55'0 0.1
2016-Jun-21 21:32N 01°15' E 103°55'0 0.0
2016-Jun-21 20:29N 01°15' E 103°55'0 0.0
2016-Jun-21 19:29N 01°15' E 103°55'0 0.0
2016-Jun-21 18:29N 01°15' E 103°55'0 0.0
2016-Jun-21 17:29N 01°15' E 103°55'0 0.1
2016-Jun-21 16:32N 01°15' E 103°55'0 0.2
2016-Jun-21 15:29N 01°15' E 103°54'0 0.2
2016-Jun-21 14:29N 01°15' E 103°54'0 0.0
2016-Jun-21 13:32N 01°15' E 103°54'0 0.0
2016-Jun-21 12:29N 01°15' E 103°54'0 0.0
2016-Jun-21 11:23N 01°15' E 103°54'0 0.2
2016-Jun-21 10:29N 01°15' E 103°55'0 0.1
2016-Jun-21 08:11N 01°15' E 103°55'0 0.0
2016-Jun-21 07:32N 01°15' E 103°55'1 0.2
2016-Jun-21 04:33N 01°15' E 103°55'5 5.1
2016-Jun-21 03:33N 01°16' E 104°00'9 9.4
2016-Jun-21 02:33N 01°17' E 104°10'  
2016-Jun-17 01:23N 22°35' E 119°47'1415.0
2016-Jun-17 00:28N 22°49' E 119°49'  
2016-Jun-13 22:33N 36°14' E 123°50'1414.4
2016-Jun-13 21:33N 36°28' E 123°47'1414.2
2016-Jun-13 20:34N 36°42' E 123°46'1413.8
2016-Jun-13 19:33N 36°56' E 123°43'1313.4
2016-Jun-13 18:33N 37°09' E 123°40'1313.2
2016-Jun-13 17:33N 37°19' E 123°30'1312.8
2016-Jun-13 16:33N 37°30' E 123°21'1313.3
2016-Jun-13 15:33N 37°42' E 123°13'1513.8
2016-Jun-13 14:28N 37°53' E 123°01'1913.8
2016-Jun-13 13:04N 38°04' E 122°40'714.4
2016-Jun-13 12:33N 38°06' E 122°31'1414.3
2016-Jun-13 11:33N 38°10' E 122°14'1413.6
2016-Jun-13 10:33N 38°15' E 121°58'1513.3
2016-Jun-13 09:28N 38°20' E 121°40'1213.3
2016-Jun-13 08:33N 38°24' E 121°25'1313.2
2016-Jun-13 07:33N 38°26' E 121°09'1413.6
2016-Jun-13 06:33N 38°33' E 120°54'1211.9
2016-Jun-13 05:34N 38°44' E 120°48'1814.5
2016-Jun-13 04:18N 39°02' E 120°52'3913.2
2016-Jun-13 01:22N 39°39' E 121°02'1612.4
2016-Jun-13 00:07N 39°52' E 121°14'712.5
2016-Jun-12 23:33N 39°58' E 121°18'  

Dump ship's entire track history